sensor_id;sensor_type;location;lat;lon;timestamp;temperature;humidity
21950;DHT22;11139;51.284;7.226;2022-11-04T00:16:07;12.20;99.90
21950;DHT22;11139;51.284;7.226;2022-11-04T03:19:51;11.70;99.90
21950;DHT22;11139;51.284;7.226;2022-11-04T03:22:19;11.70;99.90
21950;DHT22;11139;51.284;7.226;2022-11-04T03:24:46;11.70;99.90
21950;DHT22;11139;51.284;7.226;2022-11-04T03:27:21;11.70;99.90
21950;DHT22;11139;51.284;7.226;2022-11-04T03:34:57;11.70;99.90
21950;DHT22;11139;51.284;7.226;2022-11-04T03:37:22;11.70;99.90
21950;DHT22;11139;51.284;7.226;2022-11-04T03:39:48;11.70;99.90
21950;DHT22;11139;51.284;7.226;2022-11-04T03:42:13;11.70;99.90
21950;DHT22;11139;51.284;7.226;2022-11-04T03:44:55;11.70;99.90
21950;DHT22;11139;51.284;7.226;2022-11-04T03:47:22;11.60;99.90
21950;DHT22;11139;51.284;7.226;2022-11-04T03:49:49;11.70;99.90
21950;DHT22;11139;51.284;7.226;2022-11-04T03:52:15;11.70;99.90
21950;DHT22;11139;51.284;7.226;2022-11-04T03:54:42;11.70;99.90
21950;DHT22;11139;51.284;7.226;2022-11-04T03:57:21;11.70;99.90
21950;DHT22;11139;51.284;7.226;2022-11-04T04:02:33;11.70;99.90
21950;DHT22;11139;51.284;7.226;2022-11-04T04:05:01;11.70;99.90
21950;DHT22;11139;51.284;7.226;2022-11-04T04:07:37;11.70;99.90
21950;DHT22;11139;51.284;7.226;2022-11-04T04:12:52;11.70;99.90
21950;DHT22;11139;51.284;7.226;2022-11-04T04:15:28;11.60;99.90
21950;DHT22;11139;51.284;7.226;2022-11-04T04:17:57;11.60;99.90
21950;DHT22;11139;51.284;7.226;2022-11-04T04:20:24;11.60;99.90
21950;DHT22;11139;51.284;7.226;2022-11-04T04:23:02;11.60;99.90
21950;DHT22;11139;51.284;7.226;2022-11-04T04:25:48;11.60;99.90
21950;DHT22;11139;51.284;7.226;2022-11-04T04:28:33;11.60;99.90
21950;DHT22;11139;51.284;7.226;2022-11-04T04:31:01;11.60;99.90
21950;DHT22;11139;51.284;7.226;2022-11-04T04:33:28;11.60;99.90
21950;DHT22;11139;51.284;7.226;2022-11-04T04:35:56;11.60;99.90
21950;DHT22;11139;51.284;7.226;2022-11-04T04:38:26;11.60;99.90
21950;DHT22;11139;51.284;7.226;2022-11-04T04:41:18;11.60;99.90
21950;DHT22;11139;51.284;7.226;2022-11-04T04:44:03;11.60;99.90
21950;DHT22;11139;51.284;7.226;2022-11-04T04:46:49;11.60;99.90
21950;DHT22;11139;51.284;7.226;2022-11-04T04:49:17;11.60;99.90
21950;DHT22;11139;51.284;7.226;2022-11-04T04:51:49;11.60;99.90
21950;DHT22;11139;51.284;7.226;2022-11-04T04:54:18;11.60;99.90
21950;DHT22;11139;51.284;7.226;2022-11-04T04:56:47;11.60;99.90
21950;DHT22;11139;51.284;7.226;2022-11-04T04:59:14;11.60;99.90
21950;DHT22;11139;51.284;7.226;2022-11-04T05:01:40;11.60;99.90
21950;DHT22;11139;51.284;7.226;2022-11-04T05:04:05;11.60;99.90
21950;DHT22;11139;51.284;7.226;2022-11-04T05:06:34;11.60;99.90
21950;DHT22;11139;51.284;7.226;2022-11-04T05:09:02;11.60;99.90
21950;DHT22;11139;51.284;7.226;2022-11-04T05:11:28;11.60;99.90
21950;DHT22;11139;51.284;7.226;2022-11-04T05:13:57;11.60;99.90
21950;DHT22;11139;51.284;7.226;2022-11-04T05:16:22;11.60;99.90
21950;DHT22;11139;51.284;7.226;2022-11-04T05:18:51;11.60;99.90
21950;DHT22;11139;51.284;7.226;2022-11-04T05:21:20;11.50;99.90
21950;DHT22;11139;51.284;7.226;2022-11-04T05:23:48;11.60;99.90
21950;DHT22;11139;51.284;7.226;2022-11-04T05:26:14;11.60;99.90
21950;DHT22;11139;51.284;7.226;2022-11-04T05:28:43;11.60;99.90
21950;DHT22;11139;51.284;7.226;2022-11-04T05:31:11;11.60;99.90
21950;DHT22;11139;51.284;7.226;2022-11-04T05:33:40;11.50;99.90
21950;DHT22;11139;51.284;7.226;2022-11-04T05:36:06;11.60;99.90
21950;DHT22;11139;51.284;7.226;2022-11-04T05:38:32;11.50;99.90
21950;DHT22;11139;51.284;7.226;2022-11-04T05:41:00;11.50;99.90
21950;DHT22;11139;51.284;7.226;2022-11-04T05:43:26;11.50;99.90
21950;DHT22;11139;51.284;7.226;2022-11-04T05:45:54;11.60;99.90
21950;DHT22;11139;51.284;7.226;2022-11-04T05:48:20;11.50;99.90
21950;DHT22;11139;51.284;7.226;2022-11-04T05:50:45;11.50;99.90
21950;DHT22;11139;51.284;7.226;2022-11-04T05:53:11;11.50;99.90
21950;DHT22;11139;51.284;7.226;2022-11-04T05:55:40;11.50;99.90
21950;DHT22;11139;51.284;7.226;2022-11-04T05:58:08;11.50;99.90
21950;DHT22;11139;51.284;7.226;2022-11-04T06:00:33;11.40;99.90
21950;DHT22;11139;51.284;7.226;2022-11-04T06:03:02;11.50;99.90
21950;DHT22;11139;51.284;7.226;2022-11-04T06:05:28;11.50;99.90
21950;DHT22;11139;51.284;7.226;2022-11-04T06:07:54;11.40;99.90
21950;DHT22;11139;51.284;7.226;2022-11-04T06:10:22;11.50;99.90
21950;DHT22;11139;51.284;7.226;2022-11-04T06:12:51;11.40;99.90
21950;DHT22;11139;51.284;7.226;2022-11-04T06:15:16;11.40;99.90
21950;DHT22;11139;51.284;7.226;2022-11-04T06:17:47;11.40;99.90
21950;DHT22;11139;51.284;7.226;2022-11-04T06:20:16;11.40;99.90
21950;DHT22;11139;51.284;7.226;2022-11-04T06:22:42;11.40;99.90
21950;DHT22;11139;51.284;7.226;2022-11-04T06:25:08;11.40;99.90
21950;DHT22;11139;51.284;7.226;2022-11-04T06:27:34;11.40;99.90
21950;DHT22;11139;51.284;7.226;2022-11-04T06:30:04;11.40;99.90
21950;DHT22;11139;51.284;7.226;2022-11-04T06:32:30;11.40;99.90
21950;DHT22;11139;51.284;7.226;2022-11-04T06:34:59;11.40;99.90
21950;DHT22;11139;51.284;7.226;2022-11-04T06:37:26;11.40;99.90
21950;DHT22;11139;51.284;7.226;2022-11-04T06:39:55;11.40;99.90
21950;DHT22;11139;51.284;7.226;2022-11-04T06:42:21;11.40;99.90
21950;DHT22;11139;51.284;7.226;2022-11-04T06:44:46;11.40;99.90
21950;DHT22;11139;51.284;7.226;2022-11-04T06:47:12;11.40;99.90
21950;DHT22;11139;51.284;7.226;2022-11-04T06:49:37;11.40;99.90
21950;DHT22;11139;51.284;7.226;2022-11-04T06:52:04;11.40;99.90
21950;DHT22;11139;51.284;7.226;2022-11-04T06:54:29;11.40;99.90
21950;DHT22;11139;51.284;7.226;2022-11-04T06:56:57;11.40;99.90
21950;DHT22;11139;51.284;7.226;2022-11-04T06:59:23;11.40;99.90
21950;DHT22;11139;51.284;7.226;2022-11-04T07:01:49;11.40;99.90
21950;DHT22;11139;51.284;7.226;2022-11-04T07:04:17;11.40;99.90
21950;DHT22;11139;51.284;7.226;2022-11-04T07:06:43;11.40;99.90
21950;DHT22;11139;51.284;7.226;2022-11-04T07:09:09;11.40;99.90
21950;DHT22;11139;51.284;7.226;2022-11-04T07:11:35;11.40;99.90
21950;DHT22;11139;51.284;7.226;2022-11-04T07:14:01;11.40;99.90
21950;DHT22;11139;51.284;7.226;2022-11-04T07:16:27;11.40;99.90
21950;DHT22;11139;51.284;7.226;2022-11-04T07:18:53;11.40;99.90
21950;DHT22;11139;51.284;7.226;2022-11-04T07:21:18;11.40;99.90
21950;DHT22;11139;51.284;7.226;2022-11-04T07:23:44;11.40;99.90
21950;DHT22;11139;51.284;7.226;2022-11-04T07:26:10;11.40;99.90
21950;DHT22;11139;51.284;7.226;2022-11-04T07:28:36;11.40;99.90
21950;DHT22;11139;51.284;7.226;2022-11-04T07:31:02;11.40;99.90
21950;DHT22;11139;51.284;7.226;2022-11-04T07:33:29;11.40;99.90
21950;DHT22;11139;51.284;7.226;2022-11-04T07:35:57;11.30;99.90
21950;DHT22;11139;51.284;7.226;2022-11-04T07:38:25;11.30;99.90
21950;DHT22;11139;51.284;7.226;2022-11-04T07:40:54;11.40;99.90
21950;DHT22;11139;51.284;7.226;2022-11-04T07:43:19;11.40;99.90
21950;DHT22;11139;51.284;7.226;2022-11-04T07:45:45;11.40;99.90
21950;DHT22;11139;51.284;7.226;2022-11-04T07:48:11;11.40;99.90
21950;DHT22;11139;51.284;7.226;2022-11-04T07:50:37;11.30;99.90
21950;DHT22;11139;51.284;7.226;2022-11-04T07:53:03;11.30;99.90
21950;DHT22;11139;51.284;7.226;2022-11-04T07:55:30;11.30;99.90
21950;DHT22;11139;51.284;7.226;2022-11-04T07:57:57;11.30;99.90
21950;DHT22;11139;51.284;7.226;2022-11-04T08:00:23;11.30;99.90
21950;DHT22;11139;51.284;7.226;2022-11-04T08:02:51;11.30;99.90
21950;DHT22;11139;51.284;7.226;2022-11-04T08:05:17;11.30;99.90
21950;DHT22;11139;51.284;7.226;2022-11-04T08:07:43;11.30;99.90
21950;DHT22;11139;51.284;7.226;2022-11-04T08:10:08;11.30;99.90
21950;DHT22;11139;51.284;7.226;2022-11-04T08:12:34;11.30;99.90
21950;DHT22;11139;51.284;7.226;2022-11-04T08:15:02;11.30;99.90
21950;DHT22;11139;51.284;7.226;2022-11-04T08:17:28;11.30;99.90
21950;DHT22;11139;51.284;7.226;2022-11-04T08:19:56;11.30;99.90
21950;DHT22;11139;51.284;7.226;2022-11-04T08:22:22;11.30;99.90
21950;DHT22;11139;51.284;7.226;2022-11-04T08:24:48;11.30;99.90
21950;DHT22;11139;51.284;7.226;2022-11-04T08:27:13;11.30;99.90
21950;DHT22;11139;51.284;7.226;2022-11-04T08:29:39;11.30;99.90
21950;DHT22;11139;51.284;7.226;2022-11-04T08:32:06;11.30;99.90
21950;DHT22;11139;51.284;7.226;2022-11-04T08:34:31;11.30;99.90
21950;DHT22;11139;51.284;7.226;2022-11-04T08:36:57;11.30;99.90
21950;DHT22;11139;51.284;7.226;2022-11-04T08:39:23;11.30;99.90
21950;DHT22;11139;51.284;7.226;2022-11-04T08:41:48;11.30;99.90
21950;DHT22;11139;51.284;7.226;2022-11-04T08:44:15;11.30;99.90
21950;DHT22;11139;51.284;7.226;2022-11-04T08:46:41;11.30;99.90
21950;DHT22;11139;51.284;7.226;2022-11-04T08:49:07;11.30;99.90
21950;DHT22;11139;51.284;7.226;2022-11-04T08:51:33;11.30;99.90
21950;DHT22;11139;51.284;7.226;2022-11-04T08:53:59;11.30;99.90
21950;DHT22;11139;51.284;7.226;2022-11-04T08:56:26;11.30;99.90
21950;DHT22;11139;51.284;7.226;2022-11-04T08:58:52;11.30;99.90
21950;DHT22;11139;51.284;7.226;2022-11-04T09:01:18;11.30;99.90
21950;DHT22;11139;51.284;7.226;2022-11-04T09:03:45;11.30;99.90
21950;DHT22;11139;51.284;7.226;2022-11-04T09:06:12;11.30;99.90
21950;DHT22;11139;51.284;7.226;2022-11-04T09:08:38;11.30;99.90
21950;DHT22;11139;51.284;7.226;2022-11-04T09:11:05;11.30;99.90
21950;DHT22;11139;51.284;7.226;2022-11-04T09:13:31;11.30;99.90
21950;DHT22;11139;51.284;7.226;2022-11-04T09:15:56;11.20;99.90
21950;DHT22;11139;51.284;7.226;2022-11-04T09:18:22;11.10;99.90
21950;DHT22;11139;51.284;7.226;2022-11-04T11:29:09;11.20;99.90
21950;DHT22;11139;51.284;7.226;2022-11-04T13:44:53;11.60;99.90
21950;DHT22;11139;51.284;7.226;2022-11-04T13:57:16;11.60;99.90
21950;DHT22;11139;51.284;7.226;2022-11-04T14:23:19;11.60;99.90
21950;DHT22;11139;51.284;7.226;2022-11-04T14:26:24;11.50;99.90
21950;DHT22;11139;51.284;7.226;2022-11-04T14:32:38;11.60;99.90
21950;DHT22;11139;51.284;7.226;2022-11-04T14:35:19;11.60;99.90
21950;DHT22;11139;51.284;7.226;2022-11-04T14:43:49;11.60;99.90
21950;DHT22;11139;51.284;7.226;2022-11-04T14:46:51;11.60;99.90
21950;DHT22;11139;51.284;7.226;2022-11-04T14:55:34;11.60;99.90
21950;DHT22;11139;51.284;7.226;2022-11-04T14:58:25;11.60;99.90
21950;DHT22;11139;51.284;7.226;2022-11-04T15:01:11;11.50;99.90
21950;DHT22;11139;51.284;7.226;2022-11-04T15:09:58;11.60;99.90
21950;DHT22;11139;51.284;7.226;2022-11-04T15:12:56;11.60;99.90
21950;DHT22;11139;51.284;7.226;2022-11-04T15:15:39;11.50;99.90
21950;DHT22;11139;51.284;7.226;2022-11-04T15:18:25;11.60;99.90
21950;DHT22;11139;51.284;7.226;2022-11-04T15:23:31;11.60;99.90
21950;DHT22;11139;51.284;7.226;2022-11-04T15:25:57;11.60;99.90
21950;DHT22;11139;51.284;7.226;2022-11-04T15:31:23;11.60;99.90
21950;DHT22;11139;51.284;7.226;2022-11-04T15:33:42;11.60;99.90
21950;DHT22;11139;51.284;7.226;2022-11-04T15:36:14;11.60;99.90
21950;DHT22;11139;51.284;7.226;2022-11-04T15:38:41;11.50;99.90
21950;DHT22;11139;51.284;7.226;2022-11-04T15:41:08;11.60;99.90
21950;DHT22;11139;51.284;7.226;2022-11-04T15:43:52;11.60;99.90
21950;DHT22;11139;51.284;7.226;2022-11-04T15:46:18;11.50;99.90
21950;DHT22;11139;51.284;7.226;2022-11-04T15:48:58;11.60;99.90
21950;DHT22;11139;51.284;7.226;2022-11-04T15:51:24;11.60;99.90
21950;DHT22;11139;51.284;7.226;2022-11-04T15:56:15;11.60;99.90
21950;DHT22;11139;51.284;7.226;2022-11-04T15:58:42;11.60;99.90
21950;DHT22;11139;51.284;7.226;2022-11-04T16:01:08;11.60;99.90
21950;DHT22;11139;51.284;7.226;2022-11-04T16:03:37;11.60;99.90
21950;DHT22;11139;51.284;7.226;2022-11-04T16:06:03;11.60;99.90
21950;DHT22;11139;51.284;7.226;2022-11-04T16:08:30;11.50;99.90
21950;DHT22;11139;51.284;7.226;2022-11-04T16:11:13;11.60;99.90
21950;DHT22;11139;51.284;7.226;2022-11-04T16:13:38;11.60;99.90
21950;DHT22;11139;51.284;7.226;2022-11-04T16:16:06;11.50;99.90
21950;DHT22;11139;51.284;7.226;2022-11-04T16:21:04;11.50;99.90
21950;DHT22;11139;51.284;7.226;2022-11-04T16:23:30;11.60;99.90
21950;DHT22;11139;51.284;7.226;2022-11-04T16:26:00;11.60;99.90
21950;DHT22;11139;51.284;7.226;2022-11-04T16:28:27;11.60;99.90
21950;DHT22;11139;51.284;7.226;2022-11-04T16:31:00;11.60;99.90
21950;DHT22;11139;51.284;7.226;2022-11-04T16:33:26;11.60;99.90
21950;DHT22;11139;51.284;7.226;2022-11-04T16:35:51;11.60;99.90
21950;DHT22;11139;51.284;7.226;2022-11-04T16:38:17;11.60;99.90
21950;DHT22;11139;51.284;7.226;2022-11-04T16:40:44;11.60;99.90
21950;DHT22;11139;51.284;7.226;2022-11-04T16:43:10;11.60;99.90
21950;DHT22;11139;51.284;7.226;2022-11-04T16:45:36;11.60;99.90
21950;DHT22;11139;51.284;7.226;2022-11-04T16:48:03;11.60;99.90
21950;DHT22;11139;51.284;7.226;2022-11-04T16:50:28;11.60;99.90
21950;DHT22;11139;51.284;7.226;2022-11-04T16:52:56;11.50;99.90
21950;DHT22;11139;51.284;7.226;2022-11-04T16:55:22;11.60;99.90
21950;DHT22;11139;51.284;7.226;2022-11-04T16:57:49;11.60;99.90
21950;DHT22;11139;51.284;7.226;2022-11-04T17:00:19;11.60;99.90
21950;DHT22;11139;51.284;7.226;2022-11-04T17:02:45;11.50;99.90
21950;DHT22;11139;51.284;7.226;2022-11-04T17:05:10;11.60;99.90
21950;DHT22;11139;51.284;7.226;2022-11-04T17:07:37;11.60;99.90
21950;DHT22;11139;51.284;7.226;2022-11-04T17:12:37;11.60;99.90
21950;DHT22;11139;51.284;7.226;2022-11-04T17:15:02;11.60;99.90
21950;DHT22;11139;51.284;7.226;2022-11-04T17:17:28;11.60;99.90
21950;DHT22;11139;51.284;7.226;2022-11-04T17:19:53;11.60;99.90
21950;DHT22;11139;51.284;7.226;2022-11-04T17:22:19;11.60;99.90
21950;DHT22;11139;51.284;7.226;2022-11-04T17:24:44;11.60;99.90
21950;DHT22;11139;51.284;7.226;2022-11-04T17:27:10;11.60;99.90
21950;DHT22;11139;51.284;7.226;2022-11-04T17:29:35;11.60;99.90
21950;DHT22;11139;51.284;7.226;2022-11-04T17:32:02;11.60;99.90
21950;DHT22;11139;51.284;7.226;2022-11-04T17:34:28;11.60;99.90
21950;DHT22;11139;51.284;7.226;2022-11-04T17:36:53;11.60;99.90
21950;DHT22;11139;51.284;7.226;2022-11-04T17:39:19;11.50;99.90
21950;DHT22;11139;51.284;7.226;2022-11-04T17:41:44;11.60;99.90
21950;DHT22;11139;51.284;7.226;2022-11-04T17:44:29;11.60;99.90
21950;DHT22;11139;51.284;7.226;2022-11-04T17:46:54;11.50;99.90
21950;DHT22;11139;51.284;7.226;2022-11-04T17:49:22;11.60;99.90
21950;DHT22;11139;51.284;7.226;2022-11-04T17:51:51;11.50;99.90
21950;DHT22;11139;51.284;7.226;2022-11-04T17:54:18;11.60;99.90
21950;DHT22;11139;51.284;7.226;2022-11-04T17:56:43;11.50;99.90
21950;DHT22;11139;51.284;7.226;2022-11-04T17:59:09;11.60;99.90
21950;DHT22;11139;51.284;7.226;2022-11-04T18:01:36;11.50;99.90
21950;DHT22;11139;51.284;7.226;2022-11-04T18:04:01;11.60;99.90
21950;DHT22;11139;51.284;7.226;2022-11-04T18:06:31;11.60;99.90
21950;DHT22;11139;51.284;7.226;2022-11-04T18:08:57;11.50;99.90
21950;DHT22;11139;51.284;7.226;2022-11-04T18:11:24;11.50;99.90
21950;DHT22;11139;51.284;7.226;2022-11-04T18:14:08;11.50;99.90
21950;DHT22;11139;51.284;7.226;2022-11-04T18:16:34;11.50;99.90
21950;DHT22;11139;51.284;7.226;2022-11-04T18:19:00;11.50;99.90
21950;DHT22;11139;51.284;7.226;2022-11-04T18:21:26;11.50;99.90
21950;DHT22;11139;51.284;7.226;2022-11-04T18:23:53;11.60;99.90
21950;DHT22;11139;51.284;7.226;2022-11-04T18:26:19;11.50;99.90
21950;DHT22;11139;51.284;7.226;2022-11-04T18:28:44;11.50;99.90
21950;DHT22;11139;51.284;7.226;2022-11-04T18:31:11;11.50;99.90
21950;DHT22;11139;51.284;7.226;2022-11-04T18:33:38;11.50;99.90
21950;DHT22;11139;51.284;7.226;2022-11-04T18:36:07;11.50;99.90
21950;DHT22;11139;51.284;7.226;2022-11-04T18:38:32;11.50;99.90
21950;DHT22;11139;51.284;7.226;2022-11-04T18:40:58;11.50;99.90
21950;DHT22;11139;51.284;7.226;2022-11-04T18:43:24;11.50;99.90
21950;DHT22;11139;51.284;7.226;2022-11-04T18:45:49;11.50;99.90
21950;DHT22;11139;51.284;7.226;2022-11-04T18:48:15;11.50;99.90
21950;DHT22;11139;51.284;7.226;2022-11-04T18:50:41;11.50;99.90
21950;DHT22;11139;51.284;7.226;2022-11-04T18:53:07;11.50;99.90
21950;DHT22;11139;51.284;7.226;2022-11-04T18:55:32;11.50;99.90
21950;DHT22;11139;51.284;7.226;2022-11-04T18:57:58;11.50;99.90
21950;DHT22;11139;51.284;7.226;2022-11-04T19:00:24;11.50;99.90
21950;DHT22;11139;51.284;7.226;2022-11-04T19:02:49;11.50;99.90
21950;DHT22;11139;51.284;7.226;2022-11-04T19:05:15;11.50;99.90
21950;DHT22;11139;51.284;7.226;2022-11-04T19:07:41;11.50;99.90
21950;DHT22;11139;51.284;7.226;2022-11-04T19:10:06;11.50;99.90
21950;DHT22;11139;51.284;7.226;2022-11-04T19:12:32;11.50;99.90
21950;DHT22;11139;51.284;7.226;2022-11-04T19:15:16;11.50;99.90
21950;DHT22;11139;51.284;7.226;2022-11-04T19:17:42;11.50;99.90
21950;DHT22;11139;51.284;7.226;2022-11-04T19:20:07;11.50;99.90
21950;DHT22;11139;51.284;7.226;2022-11-04T19:22:33;11.50;99.90
21950;DHT22;11139;51.284;7.226;2022-11-04T19:24:59;11.50;99.90
21950;DHT22;11139;51.284;7.226;2022-11-04T19:27:24;11.50;99.90
21950;DHT22;11139;51.284;7.226;2022-11-04T19:29:50;11.50;99.90
21950;DHT22;11139;51.284;7.226;2022-11-04T19:32:16;11.50;99.90
21950;DHT22;11139;51.284;7.226;2022-11-04T19:34:41;11.50;99.90
21950;DHT22;11139;51.284;7.226;2022-11-04T19:37:07;11.50;99.90
21950;DHT22;11139;51.284;7.226;2022-11-04T19:39:33;11.50;99.90
21950;DHT22;11139;51.284;7.226;2022-11-04T19:41:58;11.50;99.90
21950;DHT22;11139;51.284;7.226;2022-11-04T19:44:42;11.50;99.90
21950;DHT22;11139;51.284;7.226;2022-11-04T19:47:08;11.50;99.90
21950;DHT22;11139;51.284;7.226;2022-11-04T19:49:34;11.50;99.90
21950;DHT22;11139;51.284;7.226;2022-11-04T19:51:59;11.50;99.90
21950;DHT22;11139;51.284;7.226;2022-11-04T19:54:25;11.50;99.90
21950;DHT22;11139;51.284;7.226;2022-11-04T19:56:51;11.50;99.90
21950;DHT22;11139;51.284;7.226;2022-11-04T19:59:17;11.50;99.90
21950;DHT22;11139;51.284;7.226;2022-11-04T20:01:43;11.50;99.90
21950;DHT22;11139;51.284;7.226;2022-11-04T20:04:09;11.50;99.90
21950;DHT22;11139;51.284;7.226;2022-11-04T20:06:35;11.50;99.90
21950;DHT22;11139;51.284;7.226;2022-11-04T20:09:02;11.50;99.90
21950;DHT22;11139;51.284;7.226;2022-11-04T20:11:29;11.50;99.90
21950;DHT22;11139;51.284;7.226;2022-11-04T20:13:55;11.50;99.90
21950;DHT22;11139;51.284;7.226;2022-11-04T20:16:22;11.40;99.90
21950;DHT22;11139;51.284;7.226;2022-11-04T20:18:49;11.40;99.90
21950;DHT22;11139;51.284;7.226;2022-11-04T20:21:15;11.50;99.90
21950;DHT22;11139;51.284;7.226;2022-11-04T20:23:41;11.50;99.90
21950;DHT22;11139;51.284;7.226;2022-11-04T20:26:12;11.40;99.90
21950;DHT22;11139;51.284;7.226;2022-11-04T20:28:39;11.40;99.90
21950;DHT22;11139;51.284;7.226;2022-11-04T20:31:12;11.40;99.90
21950;DHT22;11139;51.284;7.226;2022-11-04T20:33:38;11.40;99.90
21950;DHT22;11139;51.284;7.226;2022-11-04T20:36:04;11.40;99.90
21950;DHT22;11139;51.284;7.226;2022-11-04T20:38:30;11.40;99.90
21950;DHT22;11139;51.284;7.226;2022-11-04T20:41:00;11.40;99.90
21950;DHT22;11139;51.284;7.226;2022-11-04T20:43:26;11.40;99.90
21950;DHT22;11139;51.284;7.226;2022-11-04T20:45:51;11.40;99.90
21950;DHT22;11139;51.284;7.226;2022-11-04T20:48:17;11.40;99.90
21950;DHT22;11139;51.284;7.226;2022-11-04T20:50:42;11.40;99.90
21950;DHT22;11139;51.284;7.226;2022-11-04T20:53:07;11.40;99.90
21950;DHT22;11139;51.284;7.226;2022-11-04T20:55:33;11.40;99.90
21950;DHT22;11139;51.284;7.226;2022-11-04T20:57:59;11.40;99.90
21950;DHT22;11139;51.284;7.226;2022-11-04T21:00:24;11.40;99.90
21950;DHT22;11139;51.284;7.226;2022-11-04T21:02:50;11.40;99.90
21950;DHT22;11139;51.284;7.226;2022-11-04T21:05:15;11.40;99.90
21950;DHT22;11139;51.284;7.226;2022-11-04T21:07:41;11.40;99.90
21950;DHT22;11139;51.284;7.226;2022-11-04T21:10:07;11.40;99.90
21950;DHT22;11139;51.284;7.226;2022-11-04T21:12:32;11.40;99.90
21950;DHT22;11139;51.284;7.226;2022-11-04T21:14:58;11.40;99.90
21950;DHT22;11139;51.284;7.226;2022-11-04T21:17:23;11.40;99.90
21950;DHT22;11139;51.284;7.226;2022-11-04T21:19:48;11.40;99.90
21950;DHT22;11139;51.284;7.226;2022-11-04T21:22:14;11.40;99.90
21950;DHT22;11139;51.284;7.226;2022-11-04T21:24:39;11.40;99.90
21950;DHT22;11139;51.284;7.226;2022-11-04T21:27:05;11.40;99.90
21950;DHT22;11139;51.284;7.226;2022-11-04T21:29:31;11.30;99.90
21950;DHT22;11139;51.284;7.226;2022-11-04T21:31:56;11.30;99.90
21950;DHT22;11139;51.284;7.226;2022-11-04T21:34:22;11.30;99.90
21950;DHT22;11139;51.284;7.226;2022-11-04T21:36:50;11.30;99.90
21950;DHT22;11139;51.284;7.226;2022-11-04T21:39:16;11.30;99.90
21950;DHT22;11139;51.284;7.226;2022-11-04T21:41:42;11.30;99.90
21950;DHT22;11139;51.284;7.226;2022-11-04T21:44:08;11.30;99.90
21950;DHT22;11139;51.284;7.226;2022-11-04T21:46:35;11.30;99.90
21950;DHT22;11139;51.284;7.226;2022-11-04T21:49:00;11.30;99.90
21950;DHT22;11139;51.284;7.226;2022-11-04T21:51:29;11.30;99.90
21950;DHT22;11139;51.284;7.226;2022-11-04T21:53:55;11.30;99.90
21950;DHT22;11139;51.284;7.226;2022-11-04T21:56:23;11.30;99.90
21950;DHT22;11139;51.284;7.226;2022-11-04T21:58:49;11.30;99.90
21950;DHT22;11139;51.284;7.226;2022-11-04T22:01:16;11.30;99.90
21950;DHT22;11139;51.284;7.226;2022-11-04T22:03:42;11.30;99.90
21950;DHT22;11139;51.284;7.226;2022-11-04T22:06:09;11.30;99.90
21950;DHT22;11139;51.284;7.226;2022-11-04T22:08:35;11.30;99.90
21950;DHT22;11139;51.284;7.226;2022-11-04T22:11:11;11.30;99.90
21950;DHT22;11139;51.284;7.226;2022-11-04T22:13:37;11.30;99.90
21950;DHT22;11139;51.284;7.226;2022-11-04T22:16:08;11.30;99.90
21950;DHT22;11139;51.284;7.226;2022-11-04T22:18:34;11.30;99.90
21950;DHT22;11139;51.284;7.226;2022-11-04T22:21:01;11.30;99.90
21950;DHT22;11139;51.284;7.226;2022-11-04T22:23:27;11.30;99.90
21950;DHT22;11139;51.284;7.226;2022-11-04T22:25:57;11.30;99.90
21950;DHT22;11139;51.284;7.226;2022-11-04T22:28:23;11.30;99.90
21950;DHT22;11139;51.284;7.226;2022-11-04T22:30:48;11.30;99.90
21950;DHT22;11139;51.284;7.226;2022-11-04T22:33:14;11.30;99.90
21950;DHT22;11139;51.284;7.226;2022-11-04T22:35:42;11.30;99.90
21950;DHT22;11139;51.284;7.226;2022-11-04T22:38:08;11.30;99.90
21950;DHT22;11139;51.284;7.226;2022-11-04T22:40:33;11.30;99.90
21950;DHT22;11139;51.284;7.226;2022-11-04T22:42:59;11.30;99.90
21950;DHT22;11139;51.284;7.226;2022-11-04T22:45:25;11.30;99.90
21950;DHT22;11139;51.284;7.226;2022-11-04T22:47:50;11.30;99.90
21950;DHT22;11139;51.284;7.226;2022-11-04T22:50:16;11.20;99.90
21950;DHT22;11139;51.284;7.226;2022-11-04T22:52:41;11.20;99.90
21950;DHT22;11139;51.284;7.226;2022-11-04T22:55:07;11.20;99.90
21950;DHT22;11139;51.284;7.226;2022-11-04T22:57:32;11.30;99.90
21950;DHT22;11139;51.284;7.226;2022-11-04T22:59:58;11.20;99.90
21950;DHT22;11139;51.284;7.226;2022-11-04T23:02:23;11.20;99.90
21950;DHT22;11139;51.284;7.226;2022-11-04T23:04:49;11.20;99.90
21950;DHT22;11139;51.284;7.226;2022-11-04T23:07:14;11.20;99.90
21950;DHT22;11139;51.284;7.226;2022-11-04T23:09:40;11.20;99.90
21950;DHT22;11139;51.284;7.226;2022-11-04T23:12:24;11.20;99.90
21950;DHT22;11139;51.284;7.226;2022-11-04T23:15:08;11.20;99.90
21950;DHT22;11139;51.284;7.226;2022-11-04T23:17:52;11.30;99.90
21950;DHT22;11139;51.284;7.226;2022-11-04T23:20:37;11.20;99.90
21950;DHT22;11139;51.284;7.226;2022-11-04T23:23:02;11.20;99.90
21950;DHT22;11139;51.284;7.226;2022-11-04T23:25:46;11.20;99.90
21950;DHT22;11139;51.284;7.226;2022-11-04T23:28:12;11.20;99.90
21950;DHT22;11139;51.284;7.226;2022-11-04T23:30:56;11.20;99.90
21950;DHT22;11139;51.284;7.226;2022-11-04T23:33:23;11.20;99.90
21950;DHT22;11139;51.284;7.226;2022-11-04T23:36:09;11.20;99.90
21950;DHT22;11139;51.284;7.226;2022-11-04T23:38:53;11.20;99.90
21950;DHT22;11139;51.284;7.226;2022-11-04T23:41:18;11.20;99.90
21950;DHT22;11139;51.284;7.226;2022-11-04T23:44:03;11.20;99.90
21950;DHT22;11139;51.284;7.226;2022-11-04T23:46:28;11.20;99.90
21950;DHT22;11139;51.284;7.226;2022-11-04T23:49:12;11.20;99.90
21950;DHT22;11139;51.284;7.226;2022-11-04T23:51:57;11.20;99.90
21950;DHT22;11139;51.284;7.226;2022-11-04T23:54:41;11.20;99.90
21950;DHT22;11139;51.284;7.226;2022-11-04T23:57:25;11.20;99.90
